createdAt,value
2018-05-03T00:00:24.467Z,64.10
2018-05-03T00:02:51.698Z,64.00
2018-05-03T00:05:19.665Z,64.10
2018-05-03T00:07:46.866Z,64.20
2018-05-03T00:10:14.029Z,64.10
2018-05-03T00:12:42.758Z,64.40
2018-05-03T00:15:10.731Z,64.30
2018-05-03T00:17:37.905Z,64.50
2018-05-03T00:20:05.130Z,64.40
2018-05-03T00:22:32.330Z,64.40
2018-05-03T00:25:00.412Z,64.20
2018-05-03T00:27:28.344Z,64.40
2018-05-03T00:29:56.398Z,64.40
2018-05-03T00:32:23.555Z,64.50
2018-05-03T00:34:50.834Z,64.40
2018-05-03T00:37:18.011Z,64.40
2018-05-03T00:39:45.947Z,64.40
2018-05-03T00:42:13.184Z,64.40
2018-05-03T00:44:41.356Z,64.50
2018-05-03T00:47:09.568Z,64.50
2018-05-03T00:49:36.842Z,64.60
2018-05-03T00:52:04.079Z,64.70
2018-05-03T00:54:37.333Z,64.50
2018-05-03T00:57:05.506Z,64.50
2018-05-03T00:59:33.463Z,64.50
2018-05-03T01:02:01.404Z,64.60
2018-05-03T01:04:29.337Z,64.70
2018-05-03T01:06:57.491Z,64.70
2018-05-03T01:09:25.674Z,64.80
2018-05-03T01:11:53.649Z,64.70
2018-05-03T01:14:21.805Z,64.90
2018-05-03T01:16:48.997Z,64.80
2018-05-03T01:19:17.034Z,64.80
2018-05-03T01:21:44.204Z,64.70
2018-05-03T01:24:12.463Z,64.70
2018-05-03T01:26:40.596Z,65.30
2018-05-03T01:29:08.543Z,64.80
2018-05-03T01:31:35.735Z,64.80
2018-05-03T01:34:02.891Z,64.70
2018-05-03T01:36:31.335Z,64.60
2018-05-03T01:38:58.504Z,64.80
2018-05-03T01:41:27.431Z,64.80
2018-05-03T01:43:54.596Z,64.70
2018-05-03T01:46:21.771Z,64.70
2018-05-03T01:48:48.942Z,64.80
2018-05-03T01:51:17.916Z,64.80
2018-05-03T01:53:45.138Z,64.70
2018-05-03T01:56:12.385Z,64.70
2018-05-03T01:58:39.647Z,65.00
2018-05-03T02:01:06.893Z,65.00
2018-05-03T02:03:34.929Z,65.00
2018-05-03T02:06:02.883Z,64.90
2018-05-03T02:08:30.967Z,64.90
2018-05-03T02:10:59.017Z,65.10
2018-05-03T02:13:27.163Z,65.10
2018-05-03T02:15:55.220Z,65.30
2018-05-03T02:18:23.402Z,64.80
2018-05-03T02:20:51.415Z,65.00
2018-05-03T02:23:18.617Z,65.00
2018-05-03T02:25:46.739Z,65.10
2018-05-03T02:28:13.899Z,64.90
2018-05-03T02:30:41.874Z,65.00
2018-05-03T02:33:10.714Z,65.00
2018-05-03T02:35:37.914Z,65.00
2018-05-03T02:38:06.793Z,64.90
2018-05-03T02:40:33.984Z,64.90
2018-05-03T02:43:01.745Z,64.90
2018-05-03T02:45:42.245Z,65.00
2018-05-03T02:48:09.497Z,65.00
2018-05-03T02:50:36.669Z,65.00
2018-05-03T02:53:03.836Z,64.90
2018-05-03T02:55:30.995Z,64.90
2018-05-03T02:58:10.909Z,65.10
2018-05-03T03:00:50.048Z,65.10
2018-05-03T03:03:29.012Z,65.10
2018-05-03T03:06:07.952Z,65.00
2018-05-03T03:08:47.912Z,64.90
2018-05-03T03:11:26.757Z,64.90
2018-05-03T03:14:05.691Z,65.10
2018-05-03T03:16:44.515Z,65.40
2018-05-03T03:19:23.461Z,65.30
2018-05-03T03:22:14.496Z,65.30
2018-05-03T03:25:01.471Z,65.00
2018-05-03T03:27:40.375Z,64.90
2018-05-03T03:30:13.408Z,64.90
2018-05-03T03:32:46.707Z,65.00
2018-05-03T03:35:29.602Z,64.90
2018-05-03T03:38:08.557Z,64.90
2018-05-03T03:40:41.651Z,64.80
2018-05-03T03:43:14.917Z,64.80
2018-05-03T03:45:42.110Z,64.70
2018-05-03T03:48:10.784Z,64.80
2018-05-03T03:50:38.880Z,64.70
2018-05-03T03:53:06.927Z,64.70
2018-05-03T03:55:35.073Z,64.70
2018-05-03T03:58:03.248Z,64.70
2018-05-03T04:00:31.224Z,64.60
2018-05-03T04:02:58.393Z,64.80
2018-05-03T04:05:26.646Z,64.90
2018-05-03T04:07:53.908Z,65.00
2018-05-03T04:10:21.152Z,65.00
2018-05-03T04:12:48.319Z,65.00
2018-05-03T04:15:15.487Z,65.10
2018-05-03T04:17:48.646Z,65.00
2018-05-03T04:20:32.436Z,65.00
2018-05-03T04:23:02.504Z,65.10
2018-05-03T04:25:35.701Z,65.10
2018-05-03T04:28:02.988Z,65.00
2018-05-03T04:30:30.151Z,65.10
2018-05-03T04:32:58.235Z,65.00
2018-05-03T04:35:26.245Z,65.00
2018-05-03T04:37:53.408Z,65.00
2018-05-03T04:40:20.580Z,64.90
2018-05-03T04:42:47.801Z,64.90
2018-05-03T04:45:14.965Z,65.00
2018-05-03T04:47:42.243Z,64.90
2018-05-03T04:50:10.343Z,64.90
2018-05-03T04:52:39.085Z,65.00
2018-05-03T04:55:06.247Z,65.00
2018-05-03T04:57:34.424Z,65.00
2018-05-03T05:00:01.589Z,65.30
2018-05-03T05:02:28.805Z,65.30
2018-05-03T05:04:55.976Z,65.10
2018-05-03T05:07:23.136Z,65.50
2018-05-03T05:09:50.299Z,65.30
2018-05-03T05:12:17.514Z,65.00
2018-05-03T05:14:45.720Z,64.80
2018-05-03T05:17:12.934Z,64.40
2018-05-03T05:19:40.244Z,64.30
2018-05-03T05:22:07.453Z,63.90
2018-05-03T05:24:34.612Z,63.70
2018-05-03T05:27:01.966Z,63.50
2018-05-03T05:29:29.214Z,63.30
2018-05-03T05:31:56.466Z,63.00
2018-05-03T05:34:23.720Z,62.80
2018-05-03T05:36:51.787Z,62.70
2018-05-03T05:39:19.050Z,62.70
2018-05-03T05:41:46.304Z,62.80
2018-05-03T05:44:13.534Z,62.90
2018-05-03T05:46:40.704Z,63.00
2018-05-03T05:49:07.863Z,62.90
2018-05-03T05:51:36.036Z,63.00
2018-05-03T05:54:03.239Z,63.00
2018-05-03T05:56:31.167Z,63.10
2018-05-03T05:58:58.324Z,63.10
2018-05-03T06:01:25.483Z,63.10
2018-05-03T06:03:52.649Z,63.20
2018-05-03T06:06:20.626Z,63.10
2018-05-03T06:08:47.790Z,63.10
2018-05-03T06:11:16.610Z,63.20
2018-05-03T06:13:43.772Z,63.10
2018-05-03T06:16:11.229Z,63.30
2018-05-03T06:18:38.392Z,63.30
2018-05-03T06:21:06.506Z,63.10
2018-05-03T06:23:35.343Z,63.30
2018-05-03T06:26:03.494Z,63.30
2018-05-03T06:28:31.576Z,63.30
2018-05-03T06:30:59.770Z,63.40
2018-05-03T06:33:27.856Z,63.30
2018-05-03T06:35:55.052Z,63.40
2018-05-03T06:38:23.788Z,63.40
2018-05-03T06:40:51.611Z,63.40
2018-05-03T06:43:19.577Z,63.50
2018-05-03T06:45:47.509Z,63.40
2018-05-03T06:48:14.711Z,63.40
2018-05-03T06:50:42.703Z,63.50
2018-05-03T06:53:09.891Z,63.60
2018-05-03T06:55:37.852Z,63.70
2018-05-03T06:58:05.044Z,63.70
2018-05-03T07:00:33.053Z,63.80
2018-05-03T07:03:01.157Z,63.70
2018-05-03T07:05:28.328Z,63.80
2018-05-03T07:07:56.308Z,63.70
2018-05-03T07:10:25.251Z,64.10
2018-05-03T07:12:52.416Z,63.90
2018-05-03T07:15:19.580Z,64.10
2018-05-03T07:17:47.556Z,64.20
2018-05-03T07:20:14.715Z,64.20
2018-05-03T07:22:41.904Z,64.30
2018-05-03T07:25:09.092Z,64.60
2018-05-03T07:27:36.283Z,64.70
2018-05-03T07:30:04.207Z,64.90
2018-05-03T07:32:39.750Z,64.80
2018-05-03T07:35:07.521Z,64.50
2018-05-03T07:37:40.105Z,64.70
2018-05-03T07:40:07.386Z,64.80
2018-05-03T07:42:34.596Z,65.10
2018-05-03T07:45:04.002Z,64.90
2018-05-03T07:47:31.955Z,65.10
2018-05-03T07:49:59.126Z,65.80
2018-05-03T07:52:27.056Z,65.40
2018-05-03T07:54:54.228Z,65.50
2018-05-03T07:57:22.167Z,65.40
2018-05-03T07:59:49.373Z,65.40
2018-05-03T08:02:16.535Z,65.40
2018-05-03T08:04:43.700Z,65.40
2018-05-03T08:07:10.860Z,65.50
2018-05-03T08:09:38.023Z,65.20
2018-05-03T08:12:05.196Z,64.90
2018-05-03T08:14:32.412Z,64.70
2018-05-03T08:16:59.658Z,64.60
2018-05-03T08:19:26.770Z,64.60
2018-05-03T08:21:54.705Z,64.60
2018-05-03T08:24:21.872Z,64.50
2018-05-03T08:26:49.035Z,64.50
2018-05-03T08:29:16.200Z,64.60
2018-05-03T08:31:44.270Z,64.50
2018-05-03T08:34:12.187Z,64.50
2018-05-03T08:36:41.266Z,64.70
2018-05-03T08:39:08.428Z,64.70
2018-05-03T08:41:35.594Z,64.80
2018-05-03T08:44:02.756Z,64.60
2018-05-03T08:46:29.941Z,64.40
2018-05-03T08:48:57.871Z,64.40
2018-05-03T08:51:25.036Z,64.40
2018-05-03T08:53:52.204Z,64.50
2018-05-03T08:56:20.144Z,64.80
2018-05-03T08:58:47.312Z,64.80
2018-05-03T09:01:14.479Z,64.30
2018-05-03T09:03:42.428Z,63.90
2018-05-03T09:06:09.597Z,64.00
2018-05-03T09:08:37.574Z,64.10
2018-05-03T09:11:07.573Z,63.40
2018-05-03T09:13:34.736Z,63.40
2018-05-03T09:16:02.684Z,63.40
2018-05-03T09:18:29.847Z,63.30
2018-05-03T09:20:57.011Z,63.50
2018-05-03T09:23:24.968Z,63.40
2018-05-03T09:25:52.131Z,63.40
2018-05-03T09:28:20.876Z,63.30
2018-05-03T09:30:48.039Z,63.20
2018-05-03T09:33:15.990Z,63.30
2018-05-03T09:35:43.160Z,63.30
2018-05-03T09:38:11.101Z,63.40
2018-05-03T09:40:38.273Z,63.40
2018-05-03T09:43:05.431Z,63.20
2018-05-03T09:45:32.781Z,63.20
2018-05-03T09:47:59.949Z,63.10
2018-05-03T09:50:27.144Z,63.10
2018-05-03T09:52:55.077Z,62.90
2018-05-03T09:55:22.282Z,62.90
2018-05-03T09:57:49.447Z,63.10
2018-05-03T10:00:17.383Z,63.00
2018-05-03T10:02:45.324Z,63.90
2018-05-03T10:05:12.483Z,63.10
2018-05-03T10:07:39.694Z,63.10
2018-05-03T10:10:06.864Z,62.90
2018-05-03T10:12:34.063Z,62.70
2018-05-03T10:15:01.991Z,62.70
2018-05-03T10:17:29.155Z,62.60
2018-05-03T10:19:56.319Z,63.10
2018-05-03T10:22:24.291Z,63.30
2018-05-03T10:24:52.248Z,63.90
2018-05-03T10:27:19.443Z,63.20
2018-05-03T10:29:47.438Z,63.20
2018-05-03T10:32:15.421Z,63.10
2018-05-03T10:34:43.587Z,63.00
2018-05-03T10:37:11.567Z,63.10
2018-05-03T10:39:39.561Z,63.20
2018-05-03T10:42:07.622Z,63.40
2018-05-03T10:44:35.514Z,63.40
2018-05-03T10:47:04.216Z,63.40
2018-05-03T10:49:31.411Z,63.30
2018-05-03T10:51:59.389Z,63.30
2018-05-03T10:54:27.495Z,63.30
2018-05-03T10:56:55.456Z,63.30
2018-05-03T10:59:23.399Z,63.30
2018-05-03T11:01:50.600Z,63.20
2018-05-03T11:04:18.527Z,63.30
2018-05-03T11:06:45.723Z,63.30
2018-05-03T11:09:13.652Z,63.40
2018-05-03T11:11:41.763Z,63.40
2018-05-03T11:14:09.688Z,63.10
2018-05-03T11:16:36.856Z,63.10
2018-05-03T11:19:04.883Z,63.20
2018-05-03T11:21:33.040Z,63.20
2018-05-03T11:24:00.208Z,63.10
2018-05-03T11:26:27.403Z,63.30
2018-05-03T11:28:55.531Z,63.20
2018-05-03T11:31:23.603Z,63.20
2018-05-03T11:33:50.819Z,63.30
2018-05-03T11:36:18.752Z,63.20
2018-05-03T11:38:46.829Z,63.00
2018-05-03T11:41:14.001Z,63.30
2018-05-03T11:43:41.447Z,63.40
2018-05-03T11:46:08.652Z,63.40
2018-05-03T11:48:36.591Z,63.70
2018-05-03T11:51:04.565Z,63.40
2018-05-03T11:53:32.492Z,63.50
2018-05-03T11:55:59.699Z,63.30
2018-05-03T11:58:27.709Z,63.50
2018-05-03T12:00:54.911Z,63.30
2018-05-03T12:03:22.843Z,63.40
2018-05-03T12:05:50.005Z,63.40
2018-05-03T12:08:17.172Z,63.50
2018-05-03T12:10:44.335Z,63.60
2018-05-03T12:13:12.307Z,63.50
2018-05-03T12:15:40.240Z,63.40
2018-05-03T12:18:08.407Z,63.40
2018-05-03T12:20:35.556Z,63.40
2018-05-03T12:23:02.752Z,63.90
2018-05-03T12:25:31.644Z,63.50
2018-05-03T12:27:59.614Z,63.60
2018-05-03T12:30:27.637Z,63.60
2018-05-03T12:32:54.892Z,63.50
2018-05-03T12:35:22.827Z,63.30
2018-05-03T12:37:49.988Z,63.30
2018-05-03T12:40:17.148Z,63.30
2018-05-03T12:42:44.314Z,63.40
2018-05-03T12:45:11.480Z,63.60
2018-05-03T12:47:38.713Z,63.60
2018-05-03T12:50:05.967Z,63.40
2018-05-03T12:52:33.127Z,63.40
2018-05-03T12:55:00.299Z,63.30
2018-05-03T12:57:27.468Z,63.90
2018-05-03T12:59:55.428Z,63.30
2018-05-03T13:02:22.597Z,63.30
2018-05-03T13:04:50.523Z,63.50
2018-05-03T13:07:17.759Z,63.50
2018-05-03T13:09:45.024Z,63.80
2018-05-03T13:12:12.271Z,63.70
2018-05-03T13:14:39.442Z,63.70
2018-05-03T13:17:06.631Z,63.70
2018-05-03T13:19:34.566Z,63.90
2018-05-03T13:22:01.766Z,63.80
2018-05-03T13:24:28.949Z,63.70
2018-05-03T13:26:56.112Z,63.70
2018-05-03T13:29:23.353Z,63.80
2018-05-03T13:31:50.522Z,64.30
2018-05-03T13:34:17.684Z,63.80
2018-05-03T13:36:44.912Z,63.70
2018-05-03T13:39:12.084Z,64.20
2018-05-03T13:41:39.317Z,64.00
2018-05-03T13:44:06.515Z,63.90
2018-05-03T13:46:34.451Z,63.50
2018-05-03T13:49:01.620Z,63.50
2018-05-03T13:51:30.295Z,62.10
2018-05-03T13:53:58.443Z,62.00
2018-05-03T13:56:25.617Z,61.80
2018-05-03T13:58:53.724Z,61.70
2018-05-03T14:01:21.740Z,62.10
2018-05-03T14:03:49.809Z,62.00
2018-05-03T14:06:16.972Z,62.00
2018-05-03T14:08:44.142Z,62.20
2018-05-03T14:11:11.343Z,61.90
2018-05-03T14:13:39.453Z,61.70
2018-05-03T14:16:07.488Z,62.10
2018-05-03T14:18:35.422Z,62.20
2018-05-03T14:21:02.781Z,62.20
2018-05-03T14:23:29.955Z,62.00
2018-05-03T14:25:57.903Z,62.10
2018-05-03T14:28:25.067Z,62.00
2018-05-03T14:30:52.276Z,62.20
2018-05-03T14:33:19.445Z,62.30
2018-05-03T14:35:47.552Z,62.40
2018-05-03T14:38:14.757Z,62.40
2018-05-03T14:40:41.929Z,62.60
2018-05-03T14:43:09.864Z,62.50
2018-05-03T14:45:37.796Z,63.20
2018-05-03T14:48:05.728Z,63.20
2018-05-03T14:50:33.759Z,62.50
2018-05-03T14:53:00.922Z,62.50
2018-05-03T14:55:29.020Z,62.50
2018-05-03T14:57:57.091Z,62.10
2018-05-03T15:00:25.144Z,62.30
2018-05-03T15:02:53.211Z,62.30
2018-05-03T15:05:21.348Z,62.40
2018-05-03T15:07:48.511Z,62.50
2018-05-03T15:10:17.273Z,62.30
2018-05-03T15:12:44.559Z,62.30
2018-05-03T15:15:12.488Z,62.30
2018-05-03T15:17:40.582Z,62.30
2018-05-03T15:20:08.692Z,62.60
2018-05-03T15:22:35.968Z,62.30
2018-05-03T15:25:04.069Z,62.40
2018-05-03T15:27:32.212Z,63.10
2018-05-03T15:30:00.391Z,62.40
2018-05-03T15:32:27.559Z,62.50
2018-05-03T15:34:54.759Z,62.80
2018-05-03T15:37:22.688Z,62.70
2018-05-03T15:39:50.671Z,62.70
2018-05-03T15:42:17.836Z,62.80
2018-05-03T15:44:45.812Z,62.40
2018-05-03T15:47:13.750Z,61.90
2018-05-03T15:49:40.983Z,61.70
2018-05-03T15:52:08.236Z,61.50
2018-05-03T15:54:35.486Z,61.70
2018-05-03T15:57:03.312Z,61.70
2018-05-03T15:59:31.250Z,61.70
2018-05-03T16:01:58.463Z,61.80
2018-05-03T16:04:25.733Z,62.00
2018-05-03T16:06:53.899Z,61.70
2018-05-03T16:09:21.064Z,62.10
2018-05-03T16:11:49.130Z,61.10
2018-05-03T16:14:16.353Z,61.10
2018-05-03T16:16:44.300Z,61.30
2018-05-03T16:19:12.232Z,61.50
2018-05-03T16:21:40.490Z,61.50
2018-05-03T16:24:09.168Z,61.40
2018-05-03T16:26:37.187Z,61.70
2018-05-03T16:29:05.225Z,61.60
2018-05-03T16:31:32.384Z,61.50
2018-05-03T16:34:00.353Z,61.50
2018-05-03T16:36:27.541Z,62.20
2018-05-03T16:38:54.817Z,61.10
2018-05-03T16:41:22.051Z,61.50
2018-05-03T16:43:49.212Z,61.60
2018-05-03T16:46:16.558Z,61.50
2018-05-03T16:48:43.724Z,61.40
2018-05-03T16:51:10.892Z,61.50
2018-05-03T16:53:38.056Z,61.60
2018-05-03T16:56:05.988Z,61.60
2018-05-03T16:58:33.153Z,61.50
2018-05-03T17:01:00.350Z,61.50
2018-05-03T17:03:27.643Z,61.50
2018-05-03T17:05:54.825Z,61.10
2018-05-03T17:08:23.501Z,61.80
2018-05-03T17:10:50.724Z,61.80
2018-05-03T17:13:17.897Z,61.50
2018-05-03T17:15:45.145Z,62.00
2018-05-03T17:18:12.317Z,62.00
2018-05-03T17:20:39.523Z,61.50
2018-05-03T17:23:06.698Z,61.80
2018-05-03T17:25:33.953Z,62.50
2018-05-03T17:28:02.069Z,61.80
2018-05-03T17:30:29.281Z,61.70
2018-05-03T17:32:56.487Z,61.70
2018-05-03T17:35:24.965Z,61.30
2018-05-03T17:37:52.986Z,62.40
2018-05-03T17:40:20.239Z,62.40
2018-05-03T17:42:47.437Z,62.50
2018-05-03T17:45:16.161Z,62.10
2018-05-03T17:47:43.495Z,61.40
2018-05-03T17:50:11.507Z,61.10
2018-05-03T17:52:38.707Z,61.10
2018-05-03T17:55:06.647Z,62.40
2018-05-03T17:57:33.876Z,62.40
2018-05-03T18:00:01.077Z,62.10
2018-05-03T18:02:29.012Z,62.30
2018-05-03T18:04:57.868Z,62.00
2018-05-03T18:07:25.080Z,62.00
2018-05-03T18:09:52.249Z,62.30
2018-05-03T18:12:20.184Z,61.80
2018-05-03T18:14:47.392Z,61.80
2018-05-03T18:17:15.348Z,62.60
2018-05-03T18:19:43.848Z,62.70
2018-05-03T18:22:11.025Z,62.70
2018-05-03T18:24:38.195Z,62.60
2018-05-03T18:27:05.364Z,62.50
2018-05-03T18:29:32.535Z,62.80
2018-05-03T18:32:00.468Z,63.10
2018-05-03T18:34:27.635Z,62.90
2018-05-03T18:36:54.808Z,63.10
2018-05-03T18:39:23.744Z,63.00
2018-05-03T18:41:50.912Z,62.90
2018-05-03T18:44:18.079Z,63.00
2018-05-03T18:46:45.303Z,63.10
2018-05-03T18:49:13.284Z,63.20
2018-05-03T18:51:40.484Z,62.30
2018-05-03T18:54:08.425Z,62.70
2018-05-03T18:56:35.676Z,62.70
2018-05-03T18:59:03.921Z,62.00
2018-05-03T19:01:31.133Z,62.30
2018-05-03T19:03:59.195Z,62.90
2018-05-03T19:06:27.252Z,62.90
2018-05-03T19:08:55.433Z,62.70
2018-05-03T19:11:23.464Z,62.70
2018-05-03T19:13:50.639Z,62.70
2018-05-03T19:16:17.869Z,62.60
2018-05-03T19:18:45.339Z,62.80
2018-05-03T19:21:12.583Z,62.70
2018-05-03T19:23:39.753Z,62.70
2018-05-03T19:26:07.089Z,62.80
2018-05-03T19:28:34.259Z,62.90
2018-05-03T19:31:01.603Z,62.70
2018-05-03T19:33:28.822Z,62.70
2018-05-03T19:35:56.049Z,62.80
2018-05-03T19:38:25.152Z,62.70
2018-05-03T19:40:53.169Z,62.70
2018-05-03T19:43:20.428Z,62.60
2018-05-03T19:45:47.583Z,62.50
2018-05-03T19:48:14.827Z,62.60
2018-05-03T19:50:42.188Z,62.30
2018-05-03T19:53:09.358Z,62.50
2018-05-03T19:55:36.533Z,62.50
2018-05-03T19:58:04.507Z,62.40
2018-05-03T20:00:32.449Z,62.40
2018-05-03T20:02:59.679Z,62.40
2018-05-03T20:05:27.798Z,62.60
2018-05-03T20:07:55.829Z,62.40
2018-05-03T20:10:22.998Z,62.20
2018-05-03T20:12:50.243Z,62.40
2018-05-03T20:15:17.537Z,62.30
2018-05-03T20:17:44.697Z,62.40
2018-05-03T20:20:11.880Z,62.60
2018-05-03T20:22:39.175Z,62.10
2018-05-03T20:25:06.348Z,62.10
2018-05-03T20:27:34.307Z,61.70
2018-05-03T20:30:02.278Z,61.10
2018-05-03T20:32:30.257Z,61.50
2018-05-03T20:34:59.013Z,61.30
2018-05-03T20:37:26.220Z,61.30
2018-05-03T20:39:53.497Z,61.10
2018-05-03T20:42:21.619Z,60.60
2018-05-03T20:44:49.552Z,60.30
2018-05-03T20:47:16.792Z,60.30
2018-05-03T20:49:43.963Z,59.90
2018-05-03T20:52:11.127Z,59.80
2018-05-03T20:54:38.411Z,59.60
2018-05-03T20:57:06.416Z,58.60
2018-05-03T20:59:33.583Z,58.60
2018-05-03T21:02:00.753Z,58.20
2018-05-03T21:04:27.920Z,57.90
2018-05-03T21:06:55.942Z,57.80
2018-05-03T21:09:23.113Z,57.60
2018-05-03T21:11:50.351Z,57.30
2018-05-03T21:14:17.601Z,57.20
2018-05-03T21:16:44.772Z,57.20
2018-05-03T21:19:12.015Z,57.00
2018-05-03T21:21:39.217Z,56.90
2018-05-03T21:24:07.152Z,56.90
2018-05-03T21:26:34.320Z,56.90
2018-05-03T21:29:01.541Z,57.00
2018-05-03T21:31:29.496Z,57.00
2018-05-03T21:33:58.180Z,57.20
2018-05-03T21:36:25.349Z,57.30
2018-05-03T21:38:52.520Z,57.40
2018-05-03T21:41:19.687Z,57.40
2018-05-03T21:43:46.856Z,57.30
2018-05-03T21:46:15.797Z,57.60
2018-05-03T21:48:43.154Z,57.50
2018-05-03T21:51:10.323Z,57.80
2018-05-03T21:53:37.596Z,57.90
2018-05-03T21:56:05.218Z,57.90
2018-05-03T21:58:32.383Z,58.10
2018-05-03T22:00:59.596Z,58.20
2018-05-03T22:03:26.985Z,58.30
2018-05-03T22:05:54.236Z,58.40
2018-05-03T22:08:22.412Z,58.40
2018-05-03T22:10:49.580Z,58.70
2018-05-03T22:13:16.747Z,58.60
2018-05-03T22:15:43.940Z,58.60
2018-05-03T22:18:11.213Z,58.70
2018-05-03T22:20:38.470Z,58.70
2018-05-03T22:23:05.639Z,58.80
2018-05-03T22:25:32.877Z,58.70
2018-05-03T22:28:01.054Z,57.10
2018-05-03T22:30:28.308Z,56.90
2018-05-03T22:32:56.416Z,57.40
2018-05-03T22:35:24.355Z,56.80
2018-05-03T22:37:52.547Z,56.70
2018-05-03T22:40:20.504Z,56.90
2018-05-03T22:42:48.495Z,57.10
2018-05-03T22:45:16.639Z,56.80
2018-05-03T22:47:44.613Z,56.70
2018-05-03T22:50:12.703Z,56.50
2018-05-03T22:52:40.667Z,57.60
2018-05-03T22:55:07.905Z,56.20
2018-05-03T22:57:35.068Z,56.40
2018-05-03T23:00:02.305Z,55.90
2018-05-03T23:02:30.257Z,56.50
2018-05-03T23:04:57.429Z,56.40
2018-05-03T23:07:24.685Z,55.90
2018-05-03T23:09:52.811Z,55.60
2018-05-03T23:12:20.738Z,55.80
2018-05-03T23:14:48.836Z,55.70
2018-05-03T23:17:16.001Z,55.90
2018-05-03T23:19:43.973Z,55.90
2018-05-03T23:22:12.809Z,55.70
2018-05-03T23:24:39.980Z,55.70
2018-05-03T23:27:07.143Z,55.70
2018-05-03T23:29:34.344Z,56.00
2018-05-03T23:32:01.539Z,55.60
2018-05-03T23:34:28.704Z,55.60
2018-05-03T23:36:55.900Z,55.70
2018-05-03T23:39:23.059Z,55.20
2018-05-03T23:41:50.265Z,55.30
2018-05-03T23:44:17.504Z,54.90
2018-05-03T23:46:44.676Z,55.20
2018-05-03T23:49:12.639Z,55.50
2018-05-03T23:51:40.748Z,55.50
2018-05-03T23:54:07.947Z,55.70
2018-05-03T23:56:35.114Z,55.60
2018-05-03T23:59:02.326Z,55.30
